Time;durP1;ratioP1;P1;durP2;ratioP2;P2;SDS_P1;SDS_P2;PMS_P1;PMS_P2;Temp;Humidity;BMP_temperature;BMP_pressure;BME280_temperature;BME280_humidity;BME280_pressure;Samples;Min_cycle;Max_cycle;Signal;HPM_P1;HPM_P2
2023/04/09 00:00:34;;;;;;;42.20;22.93;;;;;;;;;;5031326;28;20444;-43
2023/04/09 00:03:00;;;;;;;45.70;24.35;;;;;;;;;;5030269;28;20831;-43
2023/04/09 00:05:26;;;;;;;41.93;23.93;;;;;;;;;;5037227;28;20250;-43
2023/04/09 00:07:52;;;;;;;49.20;26.20;;;;;;;;;;5036232;28;20942;-43
2023/04/09 00:10:18;;;;;;;42.73;25.73;;;;;;;;;;5039223;28;20985;-44
2023/04/09 00:12:44;;;;;;;50.60;24.87;;;;;;;;;;5033316;28;20938;-44
2023/04/09 00:15:10;;;;;;;50.53;24.48;;;;;;;;;;5030467;28;20435;-44
2023/04/09 00:17:36;;;;;;;46.25;25.70;;;;;;;;;;5034104;28;20675;-44
2023/04/09 00:20:03;;;;;;;50.03;23.40;;;;;;;;;;5037887;28;20172;-45
2023/04/09 00:22:28;;;;;;;44.13;23.67;;;;;;;;;;5040415;28;20482;-43
2023/04/09 00:24:55;;;;;;;46.30;24.90;;;;;;;;;;5034912;28;20636;-44
2023/04/09 00:27:21;;;;;;;46.58;25.48;;;;;;;;;;5032903;28;20422;-44
2023/04/09 00:29:47;;;;;;;40.92;23.70;;;;;;;;;;5031639;28;20191;-44
2023/04/09 00:32:13;;;;;;;46.90;24.20;;;;;;;;;;5036084;28;20182;-45
2023/04/09 00:34:39;;;;;;;49.25;24.30;;;;;;;;;;5036992;28;20855;-43
2023/04/09 00:37:05;;;;;;;47.23;24.17;;;;;;;;;;5040298;28;20182;-43
2023/04/09 00:39:31;;;;;;;51.35;24.42;;;;;;;;;;5034502;28;20482;-43
2023/04/09 00:41:58;;;;;;;45.03;23.92;;;;;;;;;;5025354;28;20241;-42
2023/04/09 00:44:24;;;;;;;47.33;23.30;;;;;;;;;;5035443;28;20175;-45
2023/04/09 00:46:50;;;;;;;63.88;34.20;;;;;;;;;;5031732;28;20215;-44
2023/04/09 00:49:16;;;;;;;55.08;28.50;;;;;;;;;;5027176;28;20282;-45
2023/04/09 00:51:43;;;;;;;42.00;25.03;;;;;;;;;;5038701;28;20199;-42
2023/04/09 00:54:11;;;;;;;45.20;23.55;;;;;;;;;;5033212;28;20411;-43
2023/04/09 00:56:38;;;;;;;48.63;24.60;;;;;;;;;;5030109;28;20176;-43
2023/04/09 00:59:04;;;;;;;55.63;25.88;;;;;;;;;;5033168;28;20281;-43
2023/04/09 01:01:30;;;;;;;45.40;25.13;;;;;;;;;;5036720;28;20222;-45
2023/04/09 01:03:56;;;;;;;51.07;25.03;;;;;;;;;;5037530;28;20719;-46
2023/04/09 01:06:29;;;;;;;47.22;23.92;;;;;;;;;;5040262;28;20433;-47
2023/04/09 01:09:10;;;;;;;47.80;23.20;;;;;;;;;;5031473;28;20722;-46
2023/04/09 01:11:42;;;;;;;49.95;24.73;;;;;;;;;;5038227;28;20194;-47
2023/04/09 01:14:14;;;;;;;55.50;25.60;;;;;;;;;;5035515;28;20218;-45
2023/04/09 01:16:43;;;;;;;41.78;24.40;;;;;;;;;;5041486;28;20669;-45
2023/04/09 01:19:11;;;;;;;53.60;26.58;;;;;;;;;;5042421;28;20207;-46
2023/04/09 01:21:39;;;;;;;48.40;25.98;;;;;;;;;;5036970;28;20175;-44
2023/04/09 01:24:08;;;;;;;52.75;26.15;;;;;;;;;;5032603;28;20520;-46
2023/04/09 01:26:53;;;;;;;48.00;25.02;;;;;;;;;;5035783;28;20187;-45
2023/04/09 01:29:19;;;;;;;53.03;26.98;;;;;;;;;;5037246;28;20885;-46
2023/04/09 01:31:48;;;;;;;52.60;26.65;;;;;;;;;;5034795;28;20175;-44
2023/04/09 01:34:14;;;;;;;51.10;25.30;;;;;;;;;;5038219;28;20168;-44
2023/04/09 01:36:41;;;;;;;53.55;26.88;;;;;;;;;;5031866;28;20187;-43
2023/04/09 01:39:07;;;;;;;52.53;27.65;;;;;;;;;;5030387;28;20217;-43
2023/04/09 01:41:34;;;;;;;51.15;26.63;;;;;;;;;;5031921;28;20179;-43
2023/04/09 01:44:00;;;;;;;43.88;23.02;;;;;;;;;;5030979;28;20230;-42
2023/04/09 01:46:27;;;;;;;50.95;25.58;;;;;;;;;;5038121;28;20304;-44
2023/04/09 01:48:53;;;;;;;42.90;24.45;;;;;;;;;;5034880;28;20218;-44
2023/04/09 01:51:19;;;;;;;46.92;25.15;;;;;;;;;;5029554;28;20176;-46
2023/04/09 01:53:46;;;;;;;40.85;23.63;;;;;;;;;;5034823;28;20202;-46
2023/04/09 01:56:12;;;;;;;60.40;27.07;;;;;;;;;;5036433;28;20187;-46
2023/04/09 01:58:39;;;;;;;50.87;25.90;;;;;;;;;;5037397;28;20445;-46
2023/04/09 02:01:05;;;;;;;56.88;28.73;;;;;;;;;;5040732;28;20414;-46
2023/04/09 02:03:35;;;;;;;52.25;24.48;;;;;;;;;;5034842;28;20231;-44
2023/04/09 02:06:14;;;;;;;55.42;28.00;;;;;;;;;;5030656;28;20183;-47
2023/04/09 02:08:41;;;;;;;64.35;27.98;;;;;;;;;;5034095;28;20203;-46
2023/04/09 02:11:09;;;;;;;56.58;26.55;;;;;;;;;;5035462;28;20199;-46
2023/04/09 02:13:36;;;;;;;95.53;27.42;;;;;;;;;;5035974;28;20713;-46
2023/04/09 02:16:03;;;;;;;59.42;23.83;;;;;;;;;;5040120;28;20190;-44
2023/04/09 02:18:29;;;;;;;60.03;24.17;;;;;;;;;;5033328;28;20203;-45
2023/04/09 02:20:56;;;;;;;58.38;24.05;;;;;;;;;;5032618;28;20168;-46
2023/04/09 02:23:22;;;;;;;62.55;25.23;;;;;;;;;;5031846;28;20306;-43
2023/04/09 02:25:49;;;;;;;81.95;26.40;;;;;;;;;;5034237;28;20186;-43
2023/04/09 02:28:15;;;;;;;66.03;24.52;;;;;;;;;;5035220;28;20282;-43
2023/04/09 02:30:41;;;;;;;53.95;25.88;;;;;;;;;;5033847;28;20187;-42
2023/04/09 02:33:07;;;;;;;61.05;27.08;;;;;;;;;;5025599;28;20172;-43
2023/04/09 02:35:33;;;;;;;82.87;25.57;;;;;;;;;;5032267;28;20186;-43
2023/04/09 02:37:59;;;;;;;107.95;27.48;;;;;;;;;;5031179;28;20435;-43
2023/04/09 02:40:25;;;;;;;83.20;27.47;;;;;;;;;;5032228;28;20259;-43
2023/04/09 02:42:51;;;;;;;62.72;26.88;;;;;;;;;;5037388;28;21099;-43
2023/04/09 02:45:17;;;;;;;82.28;26.13;;;;;;;;;;5031812;28;20181;-43
2023/04/09 02:47:43;;;;;;;119.53;28.95;;;;;;;;;;5030781;28;20277;-43
2023/04/09 02:50:09;;;;;;;50.97;25.93;;;;;;;;;;5031067;28;20307;-43
2023/04/09 02:52:35;;;;;;;62.33;25.27;;;;;;;;;;5030776;28;20973;-43
2023/04/09 02:55:02;;;;;;;79.90;28.92;;;;;;;;;;5034811;28;20222;-44
2023/04/09 02:57:28;;;;;;;65.07;26.17;;;;;;;;;;5030926;28;20237;-44
2023/04/09 02:59:53;;;;;;;72.53;28.10;;;;;;;;;;5031703;28;20582;-44
2023/04/09 03:02:19;;;;;;;117.20;26.30;;;;;;;;;;5027278;28;20891;-42
2023/04/09 03:04:45;;;;;;;74.53;26.77;;;;;;;;;;5034310;28;20429;-43
2023/04/09 03:07:11;;;;;;;119.07;25.93;;;;;;;;;;5030589;28;20407;-43
2023/04/09 03:09:37;;;;;;;97.00;28.37;;;;;;;;;;5036607;28;20446;-43
2023/04/09 03:12:03;;;;;;;104.65;25.85;;;;;;;;;;5041927;28;20976;-42
2023/04/09 03:14:29;;;;;;;64.93;26.37;;;;;;;;;;5035719;28;20184;-43
2023/04/09 03:16:55;;;;;;;68.77;25.50;;;;;;;;;;5033486;28;20414;-43
2023/04/09 03:19:21;;;;;;;61.03;27.07;;;;;;;;;;5034109;28;20440;-44
2023/04/09 03:21:48;;;;;;;57.93;24.10;;;;;;;;;;5037166;28;20421;-43
2023/04/09 03:24:14;;;;;;;71.57;27.02;;;;;;;;;;5034237;28;20521;-44
2023/04/09 03:26:40;;;;;;;53.53;26.65;;;;;;;;;;5033933;28;20229;-43
2023/04/09 03:29:06;;;;;;;70.53;24.75;;;;;;;;;;5029900;28;20250;-43
2023/04/09 03:31:32;;;;;;;55.58;23.75;;;;;;;;;;5035300;28;20182;-44
2023/04/09 03:34:00;;;;;;;66.60;24.95;;;;;;;;;;5034264;28;20230;-44
2023/04/09 03:36:27;;;;;;;54.05;25.08;;;;;;;;;;5037074;28;20211;-43
2023/04/09 03:38:54;;;;;;;65.90;22.88;;;;;;;;;;5034459;28;20654;-45
2023/04/09 03:41:20;;;;;;;64.97;24.60;;;;;;;;;;5034707;28;20190;-43
2023/04/09 03:43:46;;;;;;;46.03;23.40;;;;;;;;;;5030273;28;20178;-42
2023/04/09 03:46:12;;;;;;;57.47;24.77;;;;;;;;;;5030824;28;20814;-42
2023/04/09 03:48:40;;;;;;;42.53;23.02;;;;;;;;;;5036437;28;20806;-42
2023/04/09 03:51:06;;;;;;;102.95;25.48;;;;;;;;;;5034328;28;20679;-43
2023/04/09 03:53:32;;;;;;;103.97;25.25;;;;;;;;;;5039073;28;20179;-43
2023/04/09 03:55:58;;;;;;;68.27;22.97;;;;;;;;;;5034379;28;20175;-44
2023/04/09 03:58:24;;;;;;;63.30;23.77;;;;;;;;;;5029692;28;20520;-42
2023/04/09 04:00:51;;;;;;;45.85;24.52;;;;;;;;;;5032929;28;20424;-45
2023/04/09 04:03:17;;;;;;;95.72;24.20;;;;;;;;;;5034569;28;20182;-43
2023/04/09 04:05:43;;;;;;;66.90;22.57;;;;;;;;;;5034811;28;20547;-44
2023/04/09 04:08:09;;;;;;;48.00;24.00;;;;;;;;;;5040320;28;20941;-44
2023/04/09 04:10:35;;;;;;;95.17;24.30;;;;;;;;;;5033922;28;20898;-44
2023/04/09 04:13:01;;;;;;;66.03;23.80;;;;;;;;;;5034261;28;20613;-43
2023/04/09 04:15:28;;;;;;;67.83;23.87;;;;;;;;;;5032909;28;20493;-43
2023/04/09 04:17:54;;;;;;;55.05;23.65;;;;;;;;;;5033383;28;20525;-44
2023/04/09 04:20:20;;;;;;;69.50;23.85;;;;;;;;;;5034390;28;20178;-43
2023/04/09 04:22:46;;;;;;;52.77;21.97;;;;;;;;;;5034054;28;20172;-44
2023/04/09 04:25:12;;;;;;;49.87;23.73;;;;;;;;;;5028214;28;20403;-44
2023/04/09 04:27:41;;;;;;;83.60;23.80;;;;;;;;;;5033421;28;20469;-44
2023/04/09 04:30:07;;;;;;;86.70;21.88;;;;;;;;;;5033840;28;20470;-44
2023/04/09 04:32:34;;;;;;;57.63;22.50;;;;;;;;;;5036089;28;20583;-46
2023/04/09 04:35:00;;;;;;;45.40;20.60;;;;;;;;;;5024881;28;20753;-43
2023/04/09 04:37:26;;;;;;;82.40;22.07;;;;;;;;;;5029142;28;20286;-42
2023/04/09 04:39:52;;;;;;;49.72;21.33;;;;;;;;;;5032936;28;20449;-42
2023/04/09 04:42:18;;;;;;;88.00;23.90;;;;;;;;;;5038243;28;20211;-43
2023/04/09 04:44:44;;;;;;;69.33;22.20;;;;;;;;;;5031721;28;20420;-43
2023/04/09 04:47:10;;;;;;;69.90;20.83;;;;;;;;;;5037956;28;20420;-43
2023/04/09 04:49:36;;;;;;;71.87;22.23;;;;;;;;;;5035090;28;20195;-43
2023/04/09 04:52:02;;;;;;;60.05;22.98;;;;;;;;;;5032696;28;20415;-42
2023/04/09 04:54:28;;;;;;;84.10;23.67;;;;;;;;;;5036293;28;20183;-42
2023/04/09 04:56:55;;;;;;;86.57;23.47;;;;;;;;;;5037760;28;20433;-42
2023/04/09 04:59:20;;;;;;;54.50;21.48;;;;;;;;;;5038014;28;20793;-43
2023/04/09 05:01:46;;;;;;;36.17;21.00;;;;;;;;;;5040851;28;20185;-42
2023/04/09 05:04:12;;;;;;;50.57;19.80;;;;;;;;;;5034505;28;20418;-43
2023/04/09 05:06:41;;;;;;;60.57;22.67;;;;;;;;;;5031098;28;20742;-43
2023/04/09 05:09:07;;;;;;;58.78;20.50;;;;;;;;;;5030208;28;20517;-42
2023/04/09 05:11:33;;;;;;;43.88;20.90;;;;;;;;;;5035763;28;20639;-43
2023/04/09 05:13:59;;;;;;;46.03;22.40;;;;;;;;;;5037657;28;20238;-42
2023/04/09 05:16:25;;;;;;;60.67;22.20;;;;;;;;;;5040510;28;20421;-43
2023/04/09 05:18:51;;;;;;;36.60;22.60;;;;;;;;;;5033516;28;20450;-42
2023/04/09 05:21:17;;;;;;;40.23;21.83;;;;;;;;;;5036081;28;20191;-43
2023/04/09 05:23:43;;;;;;;112.07;21.50;;;;;;;;;;5033467;28;20432;-42
2023/04/09 05:26:09;;;;;;;90.67;22.50;;;;;;;;;;5032548;28;20422;-43
2023/04/09 05:28:35;;;;;;;50.10;20.10;;;;;;;;;;5032188;28;20437;-43
2023/04/09 05:31:01;;;;;;;47.53;19.92;;;;;;;;;;5039988;28;20450;-43
2023/04/09 05:33:27;;;;;;;53.40;21.87;;;;;;;;;;5032607;28;20180;-43
2023/04/09 05:35:53;;;;;;;43.40;20.97;;;;;;;;;;5032366;28;20412;-43
2023/04/09 05:38:19;;;;;;;53.57;21.97;;;;;;;;;;5032701;28;20426;-44
2023/04/09 05:40:47;;;;;;;57.40;21.00;;;;;;;;;;5036178;28;20419;-42
2023/04/09 05:43:13;;;;;;;36.65;19.38;;;;;;;;;;5037256;28;20424;-42
2023/04/09 05:45:39;;;;;;;39.93;19.90;;;;;;;;;;5035547;28;20171;-42
2023/04/09 05:48:06;;;;;;;58.25;20.55;;;;;;;;;;5027243;28;20506;-43
2023/04/09 05:50:32;;;;;;;46.10;20.70;;;;;;;;;;5033166;28;20254;-43
2023/04/09 05:52:58;;;;;;;48.83;22.30;;;;;;;;;;5031658;28;20180;-43
2023/04/09 05:55:24;;;;;;;66.50;22.43;;;;;;;;;;5038230;28;20412;-42
2023/04/09 05:57:52;;;;;;;57.00;21.67;;;;;;;;;;5038814;28;20440;-43
2023/04/09 06:00:18;;;;;;;61.15;21.98;;;;;;;;;;5032921;28;20233;-44
2023/04/09 06:02:44;;;;;;;67.35;20.75;;;;;;;;;;5029068;28;20197;-43
2023/04/09 06:05:10;;;;;;;34.60;19.50;;;;;;;;;;5029264;28;20175;-43
2023/04/09 06:07:36;;;;;;;39.00;18.10;;;;;;;;;;5033555;28;20195;-42
2023/04/09 06:10:02;;;;;;;38.43;19.77;;;;;;;;;;5036291;28;20505;-43
2023/04/09 06:12:28;;;;;;;64.67;20.07;;;;;;;;;;5031857;28;20417;-43
2023/04/09 06:14:54;;;;;;;38.53;19.57;;;;;;;;;;5032736;28;20406;-43
2023/04/09 06:17:20;;;;;;;36.43;18.47;;;;;;;;;;5028368;28;20715;-44
2023/04/09 06:19:46;;;;;;;43.37;19.03;;;;;;;;;;5031741;28;20417;-42
2023/04/09 06:22:12;;;;;;;38.43;17.40;;;;;;;;;;5031991;28;20454;-42
2023/04/09 06:24:38;;;;;;;40.40;18.53;;;;;;;;;;5031113;28;20430;-43
2023/04/09 06:27:04;;;;;;;29.70;17.05;;;;;;;;;;5031425;28;20403;-43
2023/04/09 06:29:30;;;;;;;40.25;18.02;;;;;;;;;;5032362;28;20209;-42
2023/04/09 06:31:56;;;;;;;37.67;19.00;;;;;;;;;;5032423;28;20172;-42
2023/04/09 06:34:22;;;;;;;44.47;19.58;;;;;;;;;;5031501;28;20409;-43
2023/04/09 06:36:48;;;;;;;26.97;18.50;;;;;;;;;;5034725;28;20540;-42
2023/04/09 06:39:14;;;;;;;31.77;19.23;;;;;;;;;;5035439;28;20465;-42
2023/04/09 06:41:40;;;;;;;26.43;17.13;;;;;;;;;;5032427;28;20407;-43
2023/04/09 06:44:06;;;;;;;30.60;18.63;;;;;;;;;;5024057;28;20410;-44
2023/04/09 06:46:32;;;;;;;29.33;19.80;;;;;;;;;;5030669;28;20403;-43
2023/04/09 06:48:58;;;;;;;30.83;18.47;;;;;;;;;;5029179;28;20552;-42
2023/04/09 06:51:24;;;;;;;30.67;18.23;;;;;;;;;;5028968;28;20485;-43
2023/04/09 06:53:50;;;;;;;26.60;17.30;;;;;;;;;;5031293;28;20414;-43
2023/04/09 06:56:16;;;;;;;28.17;17.23;;;;;;;;;;5037075;28;20406;-42
2023/04/09 06:58:43;;;;;;;29.15;17.38;;;;;;;;;;5039263;28;20434;-43
2023/04/09 07:01:09;;;;;;;29.55;19.50;;;;;;;;;;5032936;28;20777;-42
2023/04/09 07:03:35;;;;;;;29.95;18.23;;;;;;;;;;5029668;28;20559;-42
2023/04/09 07:06:01;;;;;;;29.08;17.50;;;;;;;;;;5032957;28;20203;-43
2023/04/09 07:08:27;;;;;;;30.90;17.87;;;;;;;;;;5035367;28;20671;-43
2023/04/09 07:10:53;;;;;;;29.00;18.17;;;;;;;;;;5031413;28;20455;-43
2023/04/09 07:13:19;;;;;;;24.30;16.50;;;;;;;;;;5031378;28;20466;-42
2023/04/09 07:15:45;;;;;;;24.33;16.30;;;;;;;;;;5027610;28;20520;-44
2023/04/09 07:18:12;;;;;;;21.97;14.87;;;;;;;;;;5040843;28;20516;-43
2023/04/09 07:20:38;;;;;;;18.83;13.33;;;;;;;;;;5033692;28;20438;-43
2023/04/09 07:23:04;;;;;;;18.30;12.93;;;;;;;;;;5031146;28;20462;-43
2023/04/09 07:25:31;;;;;;;17.80;12.50;;;;;;;;;;5029852;28;20430;-43
2023/04/09 07:27:57;;;;;;;16.43;12.03;;;;;;;;;;5030364;28;20433;-43
2023/04/09 07:30:23;;;;;;;14.97;12.00;;;;;;;;;;5031417;28;20460;-43
2023/04/09 07:32:49;;;;;;;14.60;11.67;;;;;;;;;;5036389;28;20545;-43
2023/04/09 07:35:15;;;;;;;13.80;10.90;;;;;;;;;;5030729;28;20390;-43
2023/04/09 07:37:41;;;;;;;17.40;12.90;;;;;;;;;;5020059;28;20755;-43
2023/04/09 07:40:07;;;;;;;15.50;11.90;;;;;;;;;;5032483;28;20418;-43
2023/04/09 07:42:33;;;;;;;21.70;12.73;;;;;;;;;;5026135;28;20435;-43
2023/04/09 07:44:59;;;;;;;13.90;11.40;;;;;;;;;;5026961;28;20937;-43
2023/04/09 07:47:25;;;;;;;13.47;10.90;;;;;;;;;;5028704;28;20927;-43
2023/04/09 07:49:51;;;;;;;13.70;11.30;;;;;;;;;;5026613;28;20465;-43
2023/04/09 07:52:18;;;;;;;12.17;10.23;;;;;;;;;;5030540;28;20829;-45
2023/04/09 07:54:44;;;;;;;13.20;10.87;;;;;;;;;;5030510;28;20459;-43
2023/04/09 07:57:11;;;;;;;14.23;11.40;;;;;;;;;;5034271;28;20453;-43
2023/04/09 07:59:37;;;;;;;14.23;10.90;;;;;;;;;;5034741;28;20413;-43
2023/04/09 08:02:05;;;;;;;11.70;10.30;;;;;;;;;;5036371;28;20414;-44
2023/04/09 08:04:31;;;;;;;18.37;12.37;;;;;;;;;;5033661;28;20503;-46
2023/04/09 08:06:57;;;;;;;17.07;12.73;;;;;;;;;;5036582;28;20432;-43
2023/04/09 08:09:23;;;;;;;18.43;12.53;;;;;;;;;;5038922;28;20972;-43
2023/04/09 08:11:49;;;;;;;27.67;15.70;;;;;;;;;;5031913;28;20499;-44
2023/04/09 08:14:16;;;;;;;20.90;14.00;;;;;;;;;;5034233;28;20794;-45
2023/04/09 08:16:43;;;;;;;18.83;13.77;;;;;;;;;;5035546;28;20492;-43
2023/04/09 08:19:09;;;;;;;21.67;13.90;;;;;;;;;;5038690;28;20440;-43
2023/04/09 08:21:41;;;;;;;25.43;16.27;;;;;;;;;;5040678;28;20422;-47
2023/04/09 08:24:07;;;;;;;27.17;17.83;;;;;;;;;;5031100;28;20430;-45
2023/04/09 08:26:34;;;;;;;25.73;15.93;;;;;;;;;;5032020;28;20408;-47
2023/04/09 08:29:00;;;;;;;24.33;17.17;;;;;;;;;;5030650;28;20495;-46
2023/04/09 08:31:26;;;;;;;29.30;18.00;;;;;;;;;;5036760;28;20914;-46
2023/04/09 08:33:52;;;;;;;21.47;15.03;;;;;;;;;;5033457;28;20427;-44
2023/04/09 08:36:18;;;;;;;23.73;13.50;;;;;;;;;;5041961;28;20422;-43
2023/04/09 08:38:45;;;;;;;15.83;11.93;;;;;;;;;;5037681;28;20782;-45
2023/04/09 08:41:17;;;;;;;11.37;8.90;;;;;;;;;;5037344;28;20429;-45
2023/04/09 08:43:43;;;;;;;13.93;10.67;;;;;;;;;;5035036;28;20414;-46
2023/04/09 08:46:09;;;;;;;12.10;8.63;;;;;;;;;;5035037;28;20413;-45
2023/04/09 08:48:36;;;;;;;12.33;10.13;;;;;;;;;;5034421;28;20456;-46
2023/04/09 08:51:02;;;;;;;10.00;8.70;;;;;;;;;;5033393;28;20458;-44
2023/04/09 08:53:28;;;;;;;9.30;8.30;;;;;;;;;;5034179;28;20980;-45
2023/04/09 08:55:54;;;;;;;10.33;8.43;;;;;;;;;;5030352;28;21037;-44
2023/04/09 08:58:20;;;;;;;11.20;8.97;;;;;;;;;;5032870;28;20441;-44
2023/04/09 09:00:46;;;;;;;11.20;8.53;;;;;;;;;;5037502;28;20417;-44
2023/04/09 09:03:12;;;;;;;10.83;8.33;;;;;;;;;;5038363;28;20420;-43
2023/04/09 09:05:40;;;;;;;10.80;7.30;;;;;;;;;;5036636;28;20417;-43
2023/04/09 09:08:06;;;;;;;9.00;8.10;;;;;;;;;;5028331;28;20427;-44
2023/04/09 09:10:45;;;;;;;11.50;8.60;;;;;;;;;;5035276;28;20505;-44
2023/04/09 09:13:17;;;;;;;10.43;8.33;;;;;;;;;;5037990;28;20411;-46
2023/04/09 09:15:43;;;;;;;10.23;8.40;;;;;;;;;;5037427;28;20925;-43
2023/04/09 09:18:09;;;;;;;9.17;8.20;;;;;;;;;;5040472;28;20513;-44
2023/04/09 09:20:35;;;;;;;9.60;7.97;;;;;;;;;;5034267;28;20406;-43
2023/04/09 09:23:01;;;;;;;12.33;9.87;;;;;;;;;;5030562;28;20470;-43
2023/04/09 09:25:29;;;;;;;14.33;8.37;;;;;;;;;;5033401;28;20423;-46
2023/04/09 09:28:07;;;;;;;8.97;8.03;;;;;;;;;;5031961;28;20434;-44
2023/04/09 09:30:35;;;;;;;11.67;8.63;;;;;;;;;;5035616;28;20495;-43
2023/04/09 09:33:08;;;;;;;9.10;8.20;;;;;;;;;;5040429;28;20402;-46
2023/04/09 09:35:50;;;;;;;10.50;8.93;;;;;;;;;;5033403;28;20426;-43
2023/04/09 09:38:18;;;;;;;10.10;8.30;;;;;;;;;;5035243;28;20475;-43
2023/04/09 09:40:44;;;;;;;9.70;8.07;;;;;;;;;;5033409;28;20413;-43
2023/04/09 09:43:10;;;;;;;9.33;8.30;;;;;;;;;;5036849;28;20406;-43
2023/04/09 09:45:37;;;;;;;11.30;8.30;;;;;;;;;;5039830;28;20420;-43
2023/04/09 09:48:04;;;;;;;8.07;6.60;;;;;;;;;;5032126;28;20454;-43
2023/04/09 09:50:31;;;;;;;8.10;6.23;;;;;;;;;;5029787;28;20464;-44
2023/04/09 09:53:06;;;;;;;9.83;7.23;;;;;;;;;;5028950;28;20399;-43
2023/04/09 09:55:33;;;;;;;7.87;6.50;;;;;;;;;;5029104;28;20485;-44
2023/04/09 09:58:06;;;;;;;8.13;6.70;;;;;;;;;;5032067;28;20434;-43
2023/04/09 10:00:32;;;;;;;7.70;6.30;;;;;;;;;;5039312;28;20410;-44
2023/04/09 10:03:01;;;;;;;9.70;6.90;;;;;;;;;;5033363;28;20421;-43
2023/04/09 10:05:28;;;;;;;8.70;7.13;;;;;;;;;;5027854;28;20426;-45
2023/04/09 10:07:56;;;;;;;7.13;6.43;;;;;;;;;;5031080;28;20817;-43
2023/04/09 10:10:22;;;;;;;9.07;6.10;;;;;;;;;;5034575;28;20472;-43
2023/04/09 10:12:49;;;;;;;8.07;6.77;;;;;;;;;;5034434;28;20441;-43
2023/04/09 10:15:15;;;;;;;7.10;6.40;;;;;;;;;;5037773;28;20441;-43
2023/04/09 10:17:41;;;;;;;9.30;7.10;;;;;;;;;;5030629;28;20441;-43
2023/04/09 10:20:13;;;;;;;7.33;6.43;;;;;;;;;;5030827;28;20414;-43
2023/04/09 10:22:39;;;;;;;6.53;5.93;;;;;;;;;;5032508;28;20410;-43
2023/04/09 10:25:06;;;;;;;7.63;6.83;;;;;;;;;;5035784;28;20894;-43
2023/04/09 10:27:32;;;;;;;7.60;6.10;;;;;;;;;;5038481;28;20457;-43
2023/04/09 10:29:59;;;;;;;8.00;7.13;;;;;;;;;;5032909;28;20504;-43
2023/04/09 10:32:26;;;;;;;8.37;5.80;;;;;;;;;;5028130;28;20412;-45
2023/04/09 10:34:56;;;;;;;8.33;7.00;;;;;;;;;;5029801;28;20921;-44
2023/04/09 10:37:23;;;;;;;9.20;6.63;;;;;;;;;;5031464;28;20418;-45
2023/04/09 10:39:52;;;;;;;7.63;6.40;;;;;;;;;;5035265;28;20925;-45
2023/04/09 10:42:40;;;;;;;7.47;6.23;;;;;;;;;;5038388;28;20533;-44
2023/04/09 10:45:10;;;;;;;8.20;6.87;;;;;;;;;;5025724;28;20413;-44
2023/04/09 10:47:38;;;;;;;8.10;6.63;;;;;;;;;;5026610;28;20430;-44
2023/04/09 10:50:17;;;;;;;7.20;6.50;;;;;;;;;;5031450;28;20458;-44
2023/04/09 10:52:43;;;;;;;8.73;6.93;;;;;;;;;;5034934;28;20847;-44
2023/04/09 10:55:10;;;;;;;7.10;6.40;;;;;;;;;;5031325;28;20956;-44
2023/04/09 10:57:36;;;;;;;8.30;6.60;;;;;;;;;;5031986;28;20450;-44
2023/04/09 11:00:02;;;;;;;7.03;5.67;;;;;;;;;;5027318;28;20408;-44
2023/04/09 11:02:40;;;;;;;6.73;6.03;;;;;;;;;;5032774;28;20493;-43
2023/04/09 11:05:20;;;;;;;8.27;5.93;;;;;;;;;;5028335;28;20410;-44
2023/04/09 11:08:03;;;;;;;8.17;6.53;;;;;;;;;;5036369;28;20959;-47
2023/04/09 11:10:29;;;;;;;7.97;6.60;;;;;;;;;;5038575;28;20476;-45
2023/04/09 11:12:55;;;;;;;8.23;6.07;;;;;;;;;;5031313;28;20441;-45
2023/04/09 11:15:21;;;;;;;7.50;6.80;;;;;;;;;;5028004;28;20838;-45
2023/04/09 11:17:47;;;;;;;6.87;6.17;;;;;;;;;;5031237;28;20476;-45
2023/04/09 11:20:14;;;;;;;7.67;6.37;;;;;;;;;;5032310;28;20452;-45
2023/04/09 11:22:40;;;;;;;6.93;6.23;;;;;;;;;;5033049;28;20841;-45
2023/04/09 11:25:06;;;;;;;6.90;5.70;;;;;;;;;;5037979;28;20501;-45
2023/04/09 11:27:38;;;;;;;8.03;6.17;;;;;;;;;;5031436;28;20461;-45
2023/04/09 11:30:05;;;;;;;6.73;5.63;;;;;;;;;;5030889;28;20455;-49
2023/04/09 11:32:31;;;;;;;11.13;6.60;;;;;;;;;;5031305;28;20502;-45
2023/04/09 11:34:57;;;;;;;7.93;7.13;;;;;;;;;;5034504;28;20905;-45
2023/04/09 11:37:23;;;;;;;7.00;6.03;;;;;;;;;;5032993;28;20455;-45
2023/04/09 11:39:53;;;;;;;6.83;6.10;;;;;;;;;;5032991;28;20440;-45
2023/04/09 11:42:19;;;;;;;6.77;5.63;;;;;;;;;;5029896;28;20407;-45
2023/04/09 11:44:45;;;;;;;7.03;6.17;;;;;;;;;;5034119;28;20398;-46
2023/04/09 11:47:12;;;;;;;7.60;6.80;;;;;;;;;;5032391;28;20410;-45
2023/04/09 11:49:39;;;;;;;9.60;6.80;;;;;;;;;;5038179;28;20463;-45
2023/04/09 11:52:05;;;;;;;7.13;5.90;;;;;;;;;;5035245;28;20430;-46
2023/04/09 11:54:32;;;;;;;6.80;6.10;;;;;;;;;;5037334;28;20433;-46
2023/04/09 11:56:58;;;;;;;6.93;5.97;;;;;;;;;;5029261;28;20416;-45
2023/04/09 11:59:24;;;;;;;7.70;6.73;;;;;;;;;;5033137;28;20475;-45
2023/04/09 12:01:51;;;;;;;12.20;7.83;;;;;;;;;;5032544;28;20413;-44
2023/04/09 12:04:20;;;;;;;8.80;7.13;;;;;;;;;;5034994;28;20429;-44
2023/04/09 12:06:47;;;;;;;8.53;7.30;;;;;;;;;;5039908;28;20518;-46
2023/04/09 12:09:13;;;;;;;7.07;6.47;;;;;;;;;;5032438;28;20445;-44
2023/04/09 12:11:42;;;;;;;7.73;6.93;;;;;;;;;;5034866;28;20470;-46
2023/04/09 12:14:11;;;;;;;8.10;6.40;;;;;;;;;;5038469;28;20897;-45
2023/04/09 12:16:40;;;;;;;13.00;9.47;;;;;;;;;;5039356;28;20477;-47
2023/04/09 12:19:06;;;;;;;7.80;6.73;;;;;;;;;;5032931;28;20781;-48
2023/04/09 12:21:46;;;;;;;7.30;6.23;;;;;;;;;;5036212;28;20422;-47
2023/04/09 12:24:12;;;;;;;8.40;6.87;;;;;;;;;;5028516;28;20410;-45
2023/04/09 12:26:38;;;;;;;9.43;7.83;;;;;;;;;;5034492;28;20417;-48
2023/04/09 12:29:04;;;;;;;10.37;7.93;;;;;;;;;;5034674;28;20531;-45
2023/04/09 12:31:30;;;;;;;7.50;6.53;;;;;;;;;;5031477;28;20524;-47
2023/04/09 12:33:56;;;;;;;8.80;7.23;;;;;;;;;;5034537;28;20419;-47
2023/04/09 12:36:23;;;;;;;7.70;6.33;;;;;;;;;;5029168;28;20428;-45
2023/04/09 12:38:49;;;;;;;8.77;6.30;;;;;;;;;;5031599;28;20511;-45
2023/04/09 12:41:15;;;;;;;7.67;6.87;;;;;;;;;;5031859;28;20402;-45
2023/04/09 12:43:46;;;;;;;7.50;6.60;;;;;;;;;;5032516;28;20392;-44
2023/04/09 12:46:12;;;;;;;7.87;6.67;;;;;;;;;;5039207;28;20414;-47
2023/04/09 12:48:38;;;;;;;8.60;7.43;;;;;;;;;;5039954;28;20516;-48
2023/04/09 12:51:05;;;;;;;8.80;7.07;;;;;;;;;;5033143;28;20464;-46
2023/04/09 12:53:31;;;;;;;10.20;6.63;;;;;;;;;;5035503;28;20437;-45
2023/04/09 12:55:57;;;;;;;9.30;7.63;;;;;;;;;;5036923;28;20452;-44
2023/04/09 12:58:23;;;;;;;6.67;6.07;;;;;;;;;;5037412;28;20448;-48
2023/04/09 13:00:49;;;;;;;9.63;7.30;;;;;;;;;;5036887;28;20424;-48
2023/04/09 13:03:15;;;;;;;7.00;6.30;;;;;;;;;;5038742;28;20399;-44
2023/04/09 13:05:42;;;;;;;7.57;6.53;;;;;;;;;;5032157;28;20512;-44
2023/04/09 13:08:08;;;;;;;8.50;7.17;;;;;;;;;;5030298;28;20437;-45
2023/04/09 13:10:35;;;;;;;14.60;11.20;;;;;;;;;;5032951;28;20462;-45
2023/04/09 13:13:01;;;;;;;8.83;7.27;;;;;;;;;;5035645;28;20508;-45
2023/04/09 13:15:27;;;;;;;7.40;6.70;;;;;;;;;;5031936;28;20413;-45
2023/04/09 13:17:53;;;;;;;8.80;6.80;;;;;;;;;;5032490;28;20434;-45
2023/04/09 13:20:19;;;;;;;8.10;6.47;;;;;;;;;;5031344;28;20433;-45
2023/04/09 13:22:47;;;;;;;6.70;5.87;;;;;;;;;;5032762;28;20469;-46
2023/04/09 13:25:13;;;;;;;7.10;6.40;;;;;;;;;;5033998;28;20423;-47
2023/04/09 13:27:39;;;;;;;6.83;6.13;;;;;;;;;;5038666;28;20521;-45
2023/04/09 13:30:06;;;;;;;8.97;6.70;;;;;;;;;;5038741;28;20649;-48
2023/04/09 13:32:32;;;;;;;6.07;5.53;;;;;;;;;;5035773;28;20442;-47
2023/04/09 13:34:58;;;;;;;8.27;7.47;;;;;;;;;;5032676;28;21135;-44
2023/04/09 13:37:24;;;;;;;7.10;6.40;;;;;;;;;;5030504;28;21706;-45
2023/04/09 13:39:50;;;;;;;7.10;6.40;;;;;;;;;;5033478;28;20414;-44
2023/04/09 13:42:17;;;;;;;7.30;6.60;;;;;;;;;;5032633;28;20426;-44
2023/04/09 13:44:46;;;;;;;6.93;6.23;;;;;;;;;;5038152;28;20441;-45
2023/04/09 13:47:12;;;;;;;7.03;6.33;;;;;;;;;;5030764;28;20924;-45
2023/04/09 13:49:39;;;;;;;6.47;5.70;;;;;;;;;;5033952;28;20484;-45
2023/04/09 13:52:05;;;;;;;6.73;6.13;;;;;;;;;;5032084;28;20409;-44
2023/04/09 13:54:32;;;;;;;6.17;5.57;;;;;;;;;;5032506;28;20930;-45
2023/04/09 13:56:58;;;;;;;8.13;6.03;;;;;;;;;;5026227;28;20960;-45
2023/04/09 13:59:24;;;;;;;7.37;6.07;;;;;;;;;;5036823;28;20913;-44
2023/04/09 14:01:50;;;;;;;7.20;6.00;;;;;;;;;;5029956;28;20493;-44
2023/04/09 14:04:16;;;;;;;8.03;6.47;;;;;;;;;;5030375;28;20779;-44
2023/04/09 14:06:42;;;;;;;7.23;6.27;;;;;;;;;;5035032;28;20408;-47
2023/04/09 14:09:08;;;;;;;7.03;6.20;;;;;;;;;;5030631;28;20440;-45
2023/04/09 14:11:35;;;;;;;7.10;6.20;;;;;;;;;;5032521;28;20469;-48
2023/04/09 14:14:01;;;;;;;6.40;5.80;;;;;;;;;;5034431;28;20499;-48
2023/04/09 14:16:29;;;;;;;6.23;5.63;;;;;;;;;;5029603;28;20407;-47
2023/04/09 14:18:55;;;;;;;6.23;5.50;;;;;;;;;;5030066;28;20917;-49
2023/04/09 14:21:21;;;;;;;6.20;5.13;;;;;;;;;;5036234;28;20442;-44
2023/04/09 14:23:48;;;;;;;5.50;5.10;;;;;;;;;;5033788;28;20464;-47